Time;durP1;ratioP1;P1;durP2;ratioP2;P2;SDS_P1;SDS_P2;PMS_P1;PMS_P2;Temp;Humidity;BMP_temperature;BMP_pressure;BME280_temperature;BME280_humidity;BME280_pressure;Samples;Min_cycle;Max_cycle;Signal;HPM_P1;HPM_P2
2022/07/21 00:02:15;;;;;;;15.28;9.25;;;;;;;21.34;48.40;100504.23;2000332;89;33106;-71
2022/07/21 00:05:16;;;;;;;14.45;8.58;;;;;;;21.34;48.47;100503.75;1976024;90;29487;-72
2022/07/21 00:08:18;;;;;;;13.80;8.00;;;;;;;21.37;48.32;100501.23;2000406;89;27770;-71
2022/07/21 00:11:19;;;;;;;14.00;8.63;;;;;;;21.39;48.41;100493.78;1979166;88;29879;-71
2022/07/21 00:14:20;;;;;;;15.13;7.53;;;;;;;21.43;48.41;100490.27;2033321;87;31029;-67
2022/07/21 00:17:21;;;;;;;16.67;8.53;;;;;;;21.46;48.50;100491.34;2034762;87;33333;-74
2022/07/21 00:20:23;;;;;;;15.45;7.85;;;;;;;21.48;48.53;100495.64;2035428;87;29698;-63
2022/07/21 00:23:25;;;;;;;13.22;8.53;;;;;;;21.51;48.45;100482.25;2004174;87;27706;-71
2022/07/21 00:26:27;;;;;;;15.28;8.18;;;;;;;21.54;48.47;100473.76;1976661;90;28631;-66
2022/07/21 00:29:28;;;;;;;12.03;7.55;;;;;;;21.56;48.49;100467.66;1976905;90;31166;-71
2022/07/21 00:32:30;;;;;;;14.95;7.87;;;;;;;21.57;48.42;100462.57;1976899;90;32957;-69
2022/07/21 00:35:31;;;;;;;18.27;7.25;;;;;;;21.60;48.57;100461.41;1976896;90;29452;-65
2022/07/21 00:38:32;;;;;;;13.22;7.55;;;;;;;21.63;48.59;100459.80;1976820;90;27961;-67
2022/07/21 00:41:35;;;;;;;9.80;7.00;;;;;;;21.65;48.53;100464.13;2008801;88;29933;-73
2022/07/21 00:44:36;;;;;;;12.88;7.20;;;;;;;21.67;48.63;100462.11;2016500;88;30853;-72
2022/07/21 00:47:38;;;;;;;12.25;6.45;;;;;;;21.70;48.69;100460.44;2015996;88;33441;-66
2022/07/21 00:50:39;;;;;;;11.48;7.10;;;;;;;21.70;48.86;100457.70;2016332;88;29389;-61
2022/07/21 00:53:41;;;;;;;12.43;7.25;;;;;;;21.69;48.73;100455.98;2047913;86;27889;-71
2022/07/21 00:56:43;;;;;;;17.12;7.78;;;;;;;21.70;48.79;100463.69;2064516;85;29230;-70
2022/07/21 00:59:45;;;;;;;12.90;8.53;;;;;;;21.68;48.95;100462.45;2064616;86;31013;-65
2022/07/21 01:02:46;;;;;;;16.37;8.15;;;;;;;21.67;48.89;100458.03;2065306;86;33635;-66
2022/07/21 01:05:47;;;;;;;15.75;7.67;;;;;;;21.66;48.87;100461.76;2065608;86;30158;-72
2022/07/21 01:08:50;;;;;;;14.47;7.62;;;;;;;21.64;48.98;100471.06;2065385;86;28238;-61
2022/07/21 01:11:51;;;;;;;15.72;7.70;;;;;;;21.62;49.03;100470.34;2065437;85;29209;-69
2022/07/21 01:14:53;;;;;;;10.32;7.05;;;;;;;21.58;49.08;100474.36;2065201;86;31026;-67
2022/07/21 01:17:54;;;;;;;11.43;7.08;;;;;;;21.54;49.17;100476.48;2065351;85;34231;-70
2022/07/21 01:20:55;;;;;;;15.15;8.03;;;;;;;21.50;49.21;100470.98;2066210;85;29353;-67
2022/07/21 01:23:57;;;;;;;12.98;7.92;;;;;;;21.47;49.23;100470.75;2072273;85;28390;-70
2022/07/21 01:26:58;;;;;;;16.90;7.45;;;;;;;21.43;49.36;100473.91;2072108;85;28662;-69
2022/07/21 01:30:00;;;;;;;2.27;1.92;;;;;;;21.39;49.59;100476.91;2043357;87;31730;-61
2022/07/21 01:33:01;;;;;;;7.10;6.33;;;;;;;21.34;49.25;100470.17;2072189;85;32974;-61
2022/07/21 01:36:03;;;;;;;3.85;3.47;;;;;;;21.31;49.66;100473.17;2072159;85;29511;-61
2022/07/21 01:42:25;;;;;;;12.18;7.78;;;;;;;21.22;49.80;100488.03;2065083;85;28744;-61
2022/07/21 01:45:28;;;;;;;11.25;7.95;;;;;;;21.19;49.86;100489.66;2077920;85;32228;-61
2022/07/21 01:48:29;;;;;;;13.58;8.53;;;;;;;21.14;50.10;100489.73;2051277;86;32995;-61
2022/07/21 01:51:31;;;;;;;11.83;8.15;;;;;;;21.06;50.19;100485.83;2077966;85;29722;-61
2022/07/21 01:54:32;;;;;;;14.68;9.70;;;;;;;20.99;50.36;100485.17;2051129;86;28042;-61
2022/07/21 01:57:33;;;;;;;11.95;7.50;;;;;;;20.89;50.48;100476.97;2077788;85;28063;-61
2022/07/21 02:00:35;;;;;;;13.40;9.33;;;;;;;20.81;50.48;100479.03;2051177;86;31030;-61
2022/07/21 02:03:36;;;;;;;18.73;10.30;;;;;;;20.75;50.79;100481.81;2078206;85;33747;-61
2022/07/21 02:06:37;;;;;;;18.17;8.78;;;;;;;20.70;50.99;100484.04;2051352;86;29791;-61
2022/07/21 02:09:38;;;;;;;12.78;9.23;;;;;;;20.65;51.08;100479.02;2078010;85;27704;-60
2022/07/21 02:12:40;;;;;;;13.75;9.63;;;;;;;20.60;51.26;100471.75;2077747;85;29919;-61
2022/07/21 02:15:41;;;;;;;13.88;9.58;;;;;;;20.55;51.36;100472.69;2069175;86;31277;-61
2022/07/21 02:18:44;;;;;;;6.17;5.22;;;;;;;20.51;51.78;100472.59;2069172;86;34121;-61
2022/07/21 02:21:45;;;;;;;13.90;9.43;;;;;;;20.50;51.73;100473.59;2069246;85;29111;-61
2022/07/21 02:24:46;;;;;;;9.38;6.22;;;;;;;20.49;51.79;100469.14;2078081;85;27696;-61
2022/07/21 02:27:48;;;;;;;14.05;8.95;;;;;;;20.47;52.06;100464.33;2078195;85;29691;-60
2022/07/21 02:30:50;;;;;;;15.13;8.40;;;;;;;20.46;52.23;100463.48;2064999;85;32206;-61
2022/07/21 02:33:52;;;;;;;11.25;8.83;;;;;;;20.47;52.28;100462.97;2065146;85;32980;-60
2022/07/21 02:36:53;;;;;;;12.28;8.43;;;;;;;20.46;52.55;100465.32;2064912;86;29462;-61
2022/07/21 02:39:54;;;;;;;13.10;9.03;;;;;;;20.45;52.71;100466.31;2065619;86;27689;-61
2022/07/21 02:42:56;;;;;;;12.47;9.15;;;;;;;20.41;52.52;100463.02;2069947;85;29289;-61
2022/07/21 02:45:57;;;;;;;15.50;9.18;;;;;;;20.36;52.61;100459.83;2075071;85;32234;-61
2022/07/21 02:48:58;;;;;;;14.30;8.83;;;;;;;20.30;52.63;100465.84;2075046;85;34114;-60
2022/07/21 02:51:59;;;;;;;13.60;8.35;;;;;;;20.23;52.76;100460.08;2075063;85;29718;-60
2022/07/21 02:55:01;;;;;;;15.43;8.40;;;;;;;20.14;52.88;100464.47;2071298;85;27737;-60
2022/07/21 02:58:17;;;;;;;12.15;8.65;;;;;;;20.07;53.02;100463.78;2070591;86;28844;-60
2022/07/21 03:01:18;;;;;;;13.32;7.97;;;;;;;19.99;53.22;100464.45;2069198;85;31019;-61
2022/07/21 03:04:20;;;;;;;10.13;8.15;;;;;;;19.88;53.39;100460.78;2070232;85;34155;-60
2022/07/21 03:07:21;;;;;;;13.00;8.30;;;;;;;19.81;53.60;100461.42;2070728;85;30543;-60
2022/07/21 03:10:23;;;;;;;15.25;8.25;;;;;;;19.75;53.86;100464.17;2070626;86;27660;-60
2022/07/21 03:13:24;;;;;;;11.70;7.92;;;;;;;19.67;54.09;100449.03;2071212;85;29113;-60
2022/07/21 03:16:26;;;;;;;12.10;7.97;;;;;;;19.64;54.22;100456.94;2072594;85;31017;-61
2022/07/21 03:19:27;;;;;;;9.33;7.58;;;;;;;19.63;54.47;100459.28;2072813;85;33371;-60
2022/07/21 03:22:28;;;;;;;13.13;8.65;;;;;;;19.64;54.60;100456.94;2072746;85;29676;-60
2022/07/21 03:25:30;;;;;;;15.48;8.55;;;;;;;19.65;54.60;100450.51;2072986;85;27598;-60
2022/07/21 03:28:31;;;;;;;5.25;3.30;;;;;;;19.68;54.89;100443.45;2072326;85;28621;-60
2022/07/21 03:31:33;;;;;;;9.53;7.65;;;;;;;19.72;54.89;100445.41;2072597;85;32226;-61
2022/07/21 03:34:34;;;;;;;9.25;7.03;;;;;;;19.78;55.08;100449.45;2072961;85;32996;-60
2022/07/21 03:37:50;;;;;;;14.18;8.88;;;;;;;19.82;55.17;100454.51;2072764;85;29659;-60
2022/07/21 03:40:52;;;;;;;12.25;6.65;;;;;;;19.87;55.09;100456.34;2072734;85;27704;-60
2022/07/21 03:43:53;;;;;;;8.25;7.00;;;;;;;19.96;55.18;100450.60;2057482;85;28417;-60
2022/07/21 03:46:54;;;;;;;14.98;9.38;;;;;;;20.06;55.15;100452.02;2055296;86;31385;-61
2022/07/21 03:49:55;;;;;;;4.87;4.03;;;;;;;20.13;55.25;100446.42;2055029;85;33406;-60
2022/07/21 03:52:57;;;;;;;14.47;9.55;;;;;;;20.22;55.25;100448.83;2055359;85;30493;-60
2022/07/21 03:55:59;;;;;;;14.10;9.00;;;;;;;20.32;55.22;100459.77;2078459;85;27708;-61
2022/07/21 03:59:01;;;;;;;8.63;5.75;;;;;;;20.41;54.99;100461.66;2078665;85;28664;-61
2022/07/21 04:02:02;;;;;;;13.50;8.45;;;;;;;20.49;54.92;100474.58;2078573;85;31479;-61
2022/07/21 04:05:04;;;;;;;10.03;6.72;;;;;;;20.57;54.80;100469.81;2078696;85;34081;-60
2022/07/21 04:08:08;;;;;;;14.58;9.43;;;;;;;20.65;54.64;100471.36;2078299;85;29306;-60
2022/07/21 04:11:09;;;;;;;12.83;8.43;;;;;;;20.73;54.57;100476.12;2079167;85;27673;-60
2022/07/21 04:14:10;;;;;;;14.80;8.58;;;;;;;20.63;54.48;100446.14;2073596;85;29058;-60
2022/07/21 04:17:11;;;;;;;13.80;6.55;;;;;;;20.88;54.50;100478.84;2053424;86;31701;-61
2022/07/21 04:20:14;;;;;;;11.57;7.25;;;;;;;20.99;54.39;100481.08;2032113;86;32800;-60
2022/07/21 04:23:15;;;;;;;12.85;8.35;;;;;;;21.09;54.25;100488.28;2073604;85;30018;-60
2022/07/21 04:26:16;;;;;;;16.77;8.98;;;;;;;21.20;54.13;100487.30;2053332;86;27586;-60
2022/07/21 04:29:17;;;;;;;16.00;8.55;;;;;;;21.33;54.06;100496.58;2073093;85;29316;-60
2022/07/21 04:32:19;;;;;;;12.53;7.72;;;;;;;21.46;54.00;100488.63;2053221;86;30827;-61
2022/07/21 04:35:20;;;;;;;11.53;7.12;;;;;;;21.58;53.85;100493.44;2053222;86;34092;-61
2022/07/21 04:38:22;;;;;;;10.05;6.05;;;;;;;21.67;53.80;100486.66;2053211;86;30430;-62
2022/07/21 04:41:24;;;;;;;18.25;9.10;;;;;;;21.80;53.67;100482.77;2053650;86;27729;-61
2022/07/21 04:44:25;;;;;;;13.53;8.13;;;;;;;21.93;53.50;100486.05;2078744;85;29095;-61
2022/07/21 04:47:27;;;;;;;12.05;8.28;;;;;;;22.40;53.44;100487.95;2082621;85;32278;-61
2022/07/21 04:50:29;;;;;;;14.95;8.68;;;;;;;23.39;53.00;100482.86;2090322;85;33397;-61
2022/07/21 04:53:31;;;;;;;12.78;8.33;;;;;;;24.57;52.46;100484.45;2088499;85;29412;-60
2022/07/21 04:56:34;;;;;;;6.72;4.28;;;;;;;25.81;51.27;100483.46;2067849;85;27614;-60
2022/07/21 04:59:35;;;;;;;11.33;5.70;;;;;;;26.91;49.67;100479.27;2068313;86;29075;-61
2022/07/21 05:02:37;;;;;;;11.93;6.92;;;;;;;27.87;48.00;100471.26;2067635;86;31071;-61
2022/07/21 05:05:38;;;;;;;14.25;8.05;;;;;;;28.76;46.69;100476.03;2068097;86;33063;-61
2022/07/21 05:08:40;;;;;;;11.97;7.60;;;;;;;29.59;45.32;100481.78;2068098;85;30180;-61
2022/07/21 05:11:41;;;;;;;10.43;8.50;;;;;;;30.36;44.17;100489.47;2070024;85;27765;-61
2022/07/21 05:14:42;;;;;;;14.15;9.13;;;;;;;31.12;43.16;100477.52;2077184;85;29495;-61
2022/07/21 05:17:44;;;;;;;17.90;9.23;;;;;;;31.83;41.91;100476.73;2076620;85;32416;-61
2022/07/21 05:20:45;;;;;;;12.35;7.05;;;;;;;32.42;40.74;100471.39;2077102;85;32717;-61
2022/07/21 05:23:46;;;;;;;9.03;6.20;;;;;;;32.92;39.65;100478.30;2070345;85;29096;-61
2022/07/21 05:26:47;;;;;;;14.30;8.98;;;;;;;33.44;38.76;100479.08;2067859;86;27682;-61
2022/07/21 05:29:49;;;;;;;12.60;7.08;;;;;;;33.98;37.90;100480.65;2068313;86;28640;-62
2022/07/21 05:32:50;;;;;;;11.38;9.18;;;;;;;34.42;36.36;100471.78;2067794;86;32255;-61
2022/07/21 05:35:52;;;;;;;9.90;6.87;;;;;;;34.47;35.57;100473.34;2068028;86;33137;-62
2022/07/21 05:38:53;;;;;;;4.42;4.03;;;;;;;34.43;33.88;100476.27;2067926;86;29713;-61
2022/07/21 05:41:54;;;;;;;16.48;9.63;;;;;;;34.44;34.19;100477.97;2068070;85;27730;-60
2022/07/21 05:44:56;;;;;;;10.35;9.33;;;;;;;34.74;34.22;100483.31;2067994;86;28674;-61
2022/07/21 05:47:57;;;;;;;11.22;8.35;;;;;;;35.05;33.58;100480.06;2068052;85;31693;-62
2022/07/21 05:50:59;;;;;;;10.88;8.25;;;;;;;35.16;32.14;100489.56;2067627;86;34165;-61
2022/07/21 05:54:01;;;;;;;15.90;7.60;;;;;;;35.14;32.97;100485.59;2076858;84;29779;-61
2022/07/21 05:57:03;;;;;;;16.32;8.68;;;;;;;35.16;31.92;100477.86;2110937;84;27741;-61
2022/07/21 06:00:06;;;;;;;12.63;6.90;;;;;;;35.15;31.99;100477.55;2111233;84;28682;-61
2022/07/21 06:03:09;;;;;;;15.90;6.90;;;;;;;35.03;31.48;100478.89;2111310;84;31040;-61
2022/07/21 06:06:18;;;;;;;5.15;2.80;;;;;;;35.01;31.59;100474.65;2074179;85;37676;-61
2022/07/21 06:09:20;;;;;;;10.75;8.68;;;;;;;35.32;31.70;100481.06;2074670;85;29388;-62
2022/07/21 06:12:22;;;;;;;7.55;6.85;;;;;;;35.80;30.63;100478.73;2074872;85;27804;-60
2022/07/21 06:15:23;;;;;;;13.88;9.13;;;;;;;36.13;30.45;100483.48;2074752;85;29891;-62
2022/07/21 06:18:25;;;;;;;17.87;8.95;;;;;;;36.38;30.47;100476.25;2074848;85;31871;-61
2022/07/21 06:21:28;;;;;;;15.18;9.00;;;;;;;36.78;29.95;100474.63;2072689;85;34319;-62
2022/07/21 06:24:29;;;;;;;13.60;9.25;;;;;;;37.21;29.70;100475.23;2044264;87;29944;-63
2022/07/21 06:27:31;;;;;;;11.70;9.98;;;;;;;37.60;28.99;100474.56;2044292;87;27828;-62
2022/07/21 06:30:34;;;;;;;20.02;8.33;;;;;;;37.63;28.76;100472.10;2044264;87;29252;-61
2022/07/21 06:33:35;;;;;;;6.72;5.62;;;;;;;37.88;28.43;100468.05;2044052;87;32346;-62
2022/07/21 06:36:36;;;;;;;12.63;8.68;;;;;;;38.30;28.07;100470.96;2044048;87;32743;-62
2022/07/21 06:39:41;;;;;;;9.93;7.17;;;;;;;38.35;26.79;100474.37;2044181;87;29440;-62
2022/07/21 06:42:40;;;;;;;11.43;8.43;;;;;;;38.32;27.21;100471.52;2043908;87;27729;-63
2022/07/21 06:45:42;;;;;;;13.00;7.00;;;;;;;38.77;26.59;100465.44;2044305;87;29066;-63
2022/07/21 06:48:43;;;;;;;10.93;8.13;;;;;;;39.25;27.10;100462.07;2043919;87;32257;-63
2022/07/21 06:51:45;;;;;;;8.63;5.25;;;;;;;39.78;26.60;100465.16;2043837;87;33099;-63
2022/07/21 06:54:46;;;;;;;5.90;4.72;;;;;;;40.23;26.05;100460.15;2043270;87;29740;-62
2022/07/21 06:57:48;;;;;;;7.33;4.62;;;;;;;40.44;25.52;100467.30;2043766;87;27742;-62
2022/07/21 07:00:51;;;;;;;13.98;7.50;;;;;;;40.44;24.97;100468.16;2043379;87;29061;-63
2022/07/21 07:03:52;;;;;;;15.83;7.95;;;;;;;40.52;24.46;100470.42;2080713;85;31052;-62
2022/07/21 07:06:55;;;;;;;8.58;6.20;;;;;;;40.57;24.13;100466.79;2086384;85;32919;-62
2022/07/21 07:09:58;;;;;;;10.08;6.10;;;;;;;40.41;24.43;100465.88;2075059;85;29861;-62
2022/07/21 07:13:01;;;;;;;8.48;5.70;;;;;;;40.59;23.95;100456.12;2077798;85;27828;-63
2022/07/21 07:16:04;;;;;;;8.43;6.97;;;;;;;40.61;23.36;100454.47;2069484;86;28748;-62
2022/07/21 07:19:05;;;;;;;12.18;6.72;;;;;;;40.65;23.30;100450.00;2068995;85;31496;-63
2022/07/21 07:22:07;;;;;;;4.45;3.10;;;;;;;40.79;23.44;100457.37;2077644;85;33363;-62
2022/07/21 07:25:10;;;;;;;7.22;5.33;;;;;;;40.96;23.47;100463.61;2077917;85;29361;-63
2022/07/21 07:28:11;;;;;;;7.92;5.08;;;;;;;41.18;23.63;100457.50;2065438;86;27657;-62
2022/07/21 07:31:12;;;;;;;4.53;3.08;;;;;;;41.28;22.82;100419.00;2065151;86;29359;-61
2022/07/21 07:34:14;;;;;;;12.13;7.25;;;;;;;41.59;22.97;100459.83;2065158;86;32238;-62
2022/07/21 07:37:15;;;;;;;10.18;6.60;;;;;;;41.60;22.88;100460.11;2065165;85;32991;-62
2022/07/21 07:40:21;;;;;;;10.95;6.87;;;;;;;41.69;22.91;100471.64;2065304;86;29752;-63
2022/07/21 07:43:26;;;;;;;5.28;4.17;;;;;;;41.80;22.19;100468.27;2017325;88;27759;-61
2022/07/21 07:46:28;;;;;;;4.08;2.50;;;;;;;41.76;22.56;100469.95;2050733;86;29371;-61
2022/07/21 07:49:30;;;;;;;1.40;1.30;;;;;;;41.90;22.49;100464.02;2065153;85;31175;-62
2022/07/21 07:52:32;;;;;;;3.10;2.90;;;;;;;42.03;22.36;100461.23;2070073;85;32979;-62
2022/07/21 07:55:33;;;;;;;3.67;2.22;;;;;;;42.10;22.09;100456.71;2033914;87;29944;-62
2022/07/21 07:58:35;;;;;;;5.37;4.10;;;;;;;42.00;22.11;100458.98;2028299;87;27661;-62
2022/07/21 08:01:36;;;;;;;3.52;3.20;;;;;;;41.80;21.68;100448.57;2028454;87;29329;-63
2022/07/21 08:04:40;;;;;;;3.02;2.40;;;;;;;41.73;21.78;100454.48;2027860;87;32317;-62
2022/07/21 08:07:41;;;;;;;11.85;6.58;;;;;;;41.75;21.73;100449.97;2027819;87;34201;-62
2022/07/21 08:10:45;;;;;;;6.12;4.87;;;;;;;41.61;20.93;100451.13;2028254;87;30429;-62
2022/07/21 08:13:46;;;;;;;6.00;3.95;;;;;;;41.27;21.39;100444.60;2028344;87;27609;-62
2022/07/21 08:16:50;;;;;;;12.90;5.90;;;;;;;41.29;21.58;100438.11;2027974;87;43249;-62
2022/07/21 08:19:55;;;;;;;4.83;3.85;;;;;;;40.82;21.02;100435.17;2028212;87;30982;-62
2022/07/21 08:22:56;;;;;;;4.53;2.98;;;;;;;40.66;21.39;100430.63;2017788;87;32720;-62
2022/07/21 08:25:57;;;;;;;5.35;2.58;;;;;;;40.52;21.66;100433.92;2027688;87;29691;-62
2022/07/21 08:28:58;;;;;;;5.20;4.67;;;;;;;40.69;21.94;100427.27;2027642;87;27695;-62
2022/07/21 08:32:00;;;;;;;7.85;5.37;;;;;;;40.60;21.26;100428.33;2027707;87;29123;-62
2022/07/21 08:35:01;;;;;;;5.72;3.95;;;;;;;40.37;21.12;100431.04;2027789;87;32219;-62
2022/07/21 08:38:06;;;;;;;1.87;1.77;;;;;;;40.45;21.56;100431.94;2027774;87;32719;-61
2022/07/21 08:41:08;;;;;;;2.92;1.80;;;;;;;40.55;21.63;100425.49;2027668;87;30170;-61
2022/07/21 08:44:10;;;;;;;1.60;1.50;;;;;;;40.73;21.64;100427.56;2028019;87;27706;-61
2022/07/21 08:47:12;;;;;;;1.60;1.50;;;;;;;40.76;21.65;100423.66;2028042;87;29876;-62
2022/07/21 08:50:13;;;;;;;5.67;5.17;;;;;;;40.73;21.91;100401.73;2027671;87;31041;-61
2022/07/21 08:53:14;;;;;;;1.77;1.67;;;;;;;40.95;20.83;100428.20;2043333;86;33161;-61
2022/07/21 08:56:16;;;;;;;1.72;1.62;;;;;;;40.70;21.46;100426.16;2048795;86;29577;-61
2022/07/21 08:59:18;;;;;;;1.30;1.30;;;;;;;40.59;21.68;100414.58;2065308;86;27523;-61
2022/07/21 09:02:33;;;;;;;3.58;2.05;;;;;;;40.70;21.83;100414.92;2065057;86;29719;-61
2022/07/21 09:05:35;;;;;;;1.75;1.65;;;;;;;40.57;21.41;100416.23;2064976;86;31096;-61
2022/07/21 09:08:46;;;;;;;1.70;1.60;;;;;;;40.44;21.22;100416.75;2065385;86;33221;-61
2022/07/21 09:11:49;;;;;;;6.58;3.08;;;;;;;39.98;20.97;100411.69;2065301;86;29427;-61
2022/07/21 09:14:51;;;;;;;6.22;3.95;;;;;;;39.58;20.89;100413.37;2065503;86;27706;-61
2022/07/21 09:18:14;;;;;;;3.55;3.33;;;;;;;39.29;20.91;100405.28;2064952;86;29882;-62
2022/07/21 09:21:19;;;;;;;3.02;2.72;;;;;;;38.99;20.66;100400.17;2067061;85;31032;-61
2022/07/21 09:24:26;;;;;;;3.08;1.70;;;;;;;38.71;21.28;100399.30;2051425;86;32997;-61
2022/07/21 09:27:28;;;;;;;6.40;2.95;;;;;;;38.62;21.65;100393.31;2078015;85;30174;-61
2022/07/21 09:30:35;;;;;;;3.85;2.92;;;;;;;38.39;20.21;100395.26;2077954;85;27660;-61
2022/07/21 09:33:43;;;;;;;1.50;1.40;;;;;;;38.00;21.13;100396.11;2048411;86;29536;-61
2022/07/21 09:36:58;;;;;;;1.37;1.35;;;;;;;37.78;21.70;100396.03;2077963;85;31030;-61
2022/07/21 09:40:08;;;;;;;1.50;1.40;;;;;;;37.65;21.82;100397.22;2051250;86;32965;-61
2022/07/21 09:43:10;;;;;;;3.33;2.00;;;;;;;37.45;21.76;100392.68;2078009;85;29421;-61
2022/07/21 09:46:21;;;;;;;2.67;2.00;;;;;;;37.32;21.56;100393.81;2051479;86;28287;-61
2022/07/21 09:49:28;;;;;;;2.05;1.90;;;;;;;37.15;22.34;100384.03;2077853;85;29523;-61
2022/07/21 09:52:40;;;;;;;3.83;2.10;;;;;;;37.14;22.61;100383.20;2058277;86;30785;-63
2022/07/21 09:55:44;;;;;;;1.98;1.80;;;;;;;37.10;22.48;100381.44;2063252;86;32737;-61
2022/07/21 09:58:47;;;;;;;;;;;;;;;36.96;22.34;100380.63;2045520;87;30593;-61
2022/07/21 10:01:50;;;;;;;1.80;1.70;;;;;;;36.76;22.51;100381.33;2043234;87;36814;-61
2022/07/21 10:05:13;;;;;;;4.00;1.00;;;;;;;36.49;22.49;100372.69;2043481;86;28641;-61
2022/07/21 10:08:14;;;;;;;1.60;1.50;;;;;;;36.16;23.07;100373.66;2063126;86;31553;-61
2022/07/21 10:11:16;;;;;;;1.37;1.25;;;;;;;36.05;22.73;100363.38;2063380;86;33328;-61
2022/07/21 10:14:17;;;;;;;1.67;1.57;;;;;;;35.86;22.72;100356.52;2043302;87;30491;-61
2022/07/21 10:17:21;;;;;;;1.35;1.25;;;;;;;35.71;22.56;100354.77;2043402;87;27703;-60
2022/07/21 10:20:32;;;;;;;1.77;1.67;;;;;;;35.47;22.13;100350.56;2043294;87;28699;-61
2022/07/21 10:23:44;;;;;;;1.67;1.52;;;;;;;35.38;22.58;100351.98;2050802;85;31401;-61
2022/07/21 10:27:08;;;;;;;5.55;1.92;;;;;;;35.31;22.92;100352.63;2015771;88;32963;-62
2022/07/21 10:30:13;;;;;;;2.08;1.50;;;;;;;35.30;23.30;100351.80;2037387;87;30238;-60
2022/07/21 10:33:18;;;;;;;2.30;1.87;;;;;;;35.16;23.82;100346.97;2037374;87;27698;-60
2022/07/21 10:36:34;;;;;;;3.10;2.15;;;;;;;35.09;24.07;100342.91;2016527;88;28714;-60
2022/07/21 10:39:37;;;;;;;4.25;2.80;;;;;;;35.03;24.25;100347.19;2037162;87;32297;-60
2022/07/21 10:42:38;;;;;;;6.17;2.37;;;;;;;34.80;23.38;100351.55;1991628;88;32993;-60
2022/07/21 10:45:45;;;;;;;1.87;1.75;;;;;;;34.71;23.76;100351.03;2037137;87;30134;-59
2022/07/21 10:48:47;;;;;;;4.42;1.10;;;;;;;34.67;24.57;100344.23;2016903;88;27682;-60
2022/07/21 10:51:49;;;;;;;2.35;1.20;;;;;;;34.53;24.46;100336.63;2056602;85;29057;-58
2022/07/21 10:55:26;;;;;;;6.70;2.15;;;;;;;34.49;24.68;100339.04;2075375;85;31613;-58
2022/07/21 10:58:33;;;;;;;1.62;1.52;;;;;;;34.53;24.37;100339.41;2075528;85;33027;-59
2022/07/21 11:01:36;;;;;;;4.25;2.70;;;;;;;34.47;25.01;100341.20;2075282;85;29423;-64
2022/07/21 11:05:04;;;;;;;4.17;2.50;;;;;;;34.48;23.55;100341.52;2075517;85;28334;-64
2022/07/21 11:08:20;;;;;;;3.08;1.90;;;;;;;34.56;22.87;100347.30;2075188;85;29619;-64
2022/07/21 11:11:26;;;;;;;5.22;2.40;;;;;;;34.68;23.19;100339.84;2072115;85;32589;-64
2022/07/21 11:14:44;;;;;;;1.57;1.47;;;;;;;34.75;22.04;100345.30;2048467;85;32752;-64
2022/07/21 11:17:45;;;;;;;5.35;3.00;;;;;;;34.87;23.39;100335.61;2034701;87;29316;-64
2022/07/21 11:21:12;;;;;;;3.45;2.60;;;;;;;35.02;22.63;100334.35;2034700;87;27788;-63
2022/07/21 11:24:20;;;;;;;7.83;2.52;;;;;;;35.06;23.06;100323.05;2058154;86;28057;-64
2022/07/21 11:27:26;;;;;;;5.47;2.45;;;;;;;35.16;22.75;100333.05;2062754;86;31218;-65
2022/07/21 11:30:27;;;;;;;9.83;2.75;;;;;;;35.25;22.57;100328.81;2062998;86;33733;-64
2022/07/21 11:33:30;;;;;;;2.98;2.02;;;;;;;35.29;22.71;100325.02;2062573;86;30565;-64
2022/07/21 11:36:32;;;;;;;4.80;2.73;;;;;;;35.31;22.26;100322.84;2063455;86;27790;-63
2022/07/21 11:39:33;;;;;;;4.40;2.67;;;;;;;35.36;21.87;100317.38;2062882;86;29368;-63
2022/07/21 11:42:36;;;;;;;3.50;3.20;;;;;;;35.42;22.27;100315.56;2063779;86;32143;-64
2022/07/21 11:45:38;;;;;;;5.97;2.98;;;;;;;35.43;22.60;100306.12;2065988;86;34199;-64
2022/07/21 11:48:41;;;;;;;3.83;2.15;;;;;;;35.45;21.40;100301.19;2066180;85;29767;-64
2022/07/21 11:51:57;;;;;;;7.87;2.92;;;;;;;35.49;22.25;100293.22;2066514;86;27636;-63
2022/07/21 11:55:01;;;;;;;6.12;3.05;;;;;;;35.48;22.29;100295.70;2066980;85;28914;-64
2022/07/21 11:58:02;;;;;;;3.47;2.80;;;;;;;35.41;21.06;100293.00;2070357;86;31091;-64
2022/07/21 12:01:09;;;;;;;6.35;2.47;;;;;;;35.36;21.38;100290.92;2071519;86;33858;-63
2022/07/21 12:04:11;;;;;;;4.37;2.87;;;;;;;35.33;22.26;100290.00;2054266;86;29373;-66
2022/07/21 12:07:20;;;;;;;4.80;3.02;;;;;;;35.32;20.95;100300.01;2071778;85;27616;-63
2022/07/21 12:10:26;;;;;;;5.28;2.98;;;;;;;35.30;21.31;100286.34;2071605;85;29484;-64
2022/07/21 12:13:27;;;;;;;4.40;2.60;;;;;;;35.33;20.89;100277.47;2054202;86;31778;-63
2022/07/21 12:16:29;;;;;;;7.20;3.50;;;;;;;35.32;21.34;100277.72;2071643;85;34155;-63
2022/07/21 12:19:31;;;;;;;3.30;2.10;;;;;;;35.27;21.55;100268.70;2071589;85;29352;-63
2022/07/21 12:22:44;;;;;;;5.80;2.37;;;;;;;35.26;21.91;100276.76;2029666;86;27569;-63
2022/07/21 12:25:46;;;;;;;3.70;2.73;;;;;;;35.26;22.05;100268.40;2066822;86;29570;-63
2022/07/21 12:28:56;;;;;;;5.30;2.80;;;;;;;35.23;21.74;100268.35;2063925;85;32301;-66
2022/07/21 12:31:54;;;;;;;5.67;3.00;;;;;;;35.22;21.70;100268.58;2042228;87;33062;-63
2022/07/21 12:34:56;;;;;;;4.55;2.95;;;;;;;35.14;21.00;100263.68;2065392;86;29339;-63
2022/07/21 12:38:02;;;;;;;3.10;2.80;;;;;;;35.14;21.72;100251.67;2043698;87;28117;-63
2022/07/21 12:41:04;;;;;;;6.05;3.00;;;;;;;35.10;21.42;100261.59;2064231;86;28658;-64
2022/07/21 12:44:05;;;;;;;7.87;3.72;;;;;;;35.09;21.13;100257.97;2043359;87;32262;-63
2022/07/21 12:47:17;;;;;;;7.97;3.27;;;;;;;35.09;20.64;100254.33;2063904;86;33405;-64
2022/07/21 12:50:19;;;;;;;3.60;2.90;;;;;;;35.06;21.27;100256.22;2042829;87;29431;-64
2022/07/21 12:53:20;;;;;;;7.72;3.47;;;;;;;35.02;20.59;100255.00;2064264;85;27632;-64
2022/07/21 12:56:28;;;;;;;8.38;3.42;;;;;;;34.98;21.22;100255.47;2052921;86;28690;-64
2022/07/21 12:59:29;;;;;;;13.03;3.42;;;;;;;34.97;21.14;100255.17;2037729;87;31867;-65
2022/07/21 13:02:50;;;;;;;8.83;3.40;;;;;;;34.92;21.21;100248.04;2037646;87;33086;-64
2022/07/21 13:05:52;;;;;;;4.92;3.55;;;;;;;34.96;21.06;100249.30;2037763;87;29350;-63
2022/07/21 13:08:53;;;;;;;7.53;3.30;;;;;;;35.02;21.34;100243.86;2037942;87;28220;-63
2022/07/21 13:11:54;;;;;;;8.85;3.65;;;;;;;35.04;21.28;100234.73;2037673;87;29449;-65
2022/07/21 13:14:55;;;;;;;8.18;3.60;;;;;;;35.07;21.42;100232.30;2037717;87;32216;-65
2022/07/21 13:17:57;;;;;;;10.90;3.95;;;;;;;35.11;20.46;100225.17;2037901;87;32985;-64
2022/07/21 13:20:58;;;;;;;11.05;3.65;;;;;;;35.14;20.49;100225.22;2037717;87;29737;-64
2022/07/21 13:24:00;;;;;;;11.18;4.20;;;;;;;35.20;20.25;100220.09;2030535;87;27656;-63
2022/07/21 13:27:01;;;;;;;5.70;3.02;;;;;;;35.24;19.86;100226.02;2028754;87;28653;-63
2022/07/21 13:30:05;;;;;;;6.85;2.90;;;;;;;35.24;20.33;100224.09;2028647;87;31069;-63
2022/07/21 13:33:07;;;;;;;4.58;2.60;;;;;;;35.25;20.36;100221.58;1996282;89;33933;-65
2022/07/21 13:36:09;;;;;;;6.03;3.50;;;;;;;35.26;20.78;100216.87;2008517;88;30692;-64
2022/07/21 13:39:11;;;;;;;10.08;3.47;;;;;;;35.23;20.99;100211.78;2008989;88;27705;-64
2022/07/21 13:42:12;;;;;;;3.15;2.72;;;;;;;35.17;21.31;100212.73;2008954;88;29073;-64
2022/07/21 13:45:15;;;;;;;6.90;2.92;;;;;;;35.12;21.06;100201.80;2008961;88;32186;-64
2022/07/21 13:48:16;;;;;;;8.28;3.80;;;;;;;35.08;20.65;100199.76;2008975;88;33733;-64
2022/07/21 13:51:20;;;;;;;6.65;3.20;;;;;;;35.08;20.37;100202.54;2008931;88;29744;-64
2022/07/21 13:54:21;;;;;;;6.27;3.63;;;;;;;35.08;20.41;100192.23;2030786;87;27660;-64
2022/07/21 13:57:23;;;;;;;14.78;4.67;;;;;;;35.05;19.61;100191.32;2000756;88;29162;-64
2022/07/21 14:00:24;;;;;;;4.92;3.45;;;;;;;35.04;20.17;100183.23;2019077;88;31552;-64
2022/07/21 14:03:26;;;;;;;7.03;3.58;;;;;;;35.01;20.34;100185.92;2019905;88;33218;-63
2022/07/21 14:06:28;;;;;;;9.05;3.87;;;;;;;34.98;20.34;100189.22;2020092;87;30236;-63
2022/07/21 14:09:30;;;;;;;10.38;3.75;;;;;;;34.98;20.23;100186.44;2020258;87;27708;-64
2022/07/21 14:12:31;;;;;;;4.28;2.72;;;;;;;35.01;20.24;100183.70;2020081;88;28682;-63